VIDP Airport Information

Runway Information
Runway 09 Length 9229 ft width 150 ft
Elevation 717 ft Threshold 0 ft Heading 92
Runway 27 Length 9229 ft Width 150 ft
Elevation 750 ft Threshold 499 ft Heading 272
Runway 10 Length 12500 ft width 150 ft
Elevation 719 ft Threshold 0 ft Heading 105
Runway 28 Length 12500 ft Width 150 ft
Elevation 777 ft Threshold 0 ft Heading 285
Runway 11 Length 14534 ft width 197 ft
Elevation 720 ft Threshold 3166 ft Heading 103
Runway 29 Length 14534 ft Width 197 ft
Elevation 776 ft Threshold 4790 ft Heading 293
Airport Frequencies
Type APP Name DELHI APP Frequency 126.35 MHZ
Type AREA CONTR Name DELHI CONT Frequency 120.9 MHZ
Type AREA CONTR Name DELHI CONT Frequency 124.55 MHZ
Type ATIS Name ATIS Frequency 126.4 MHZ
Type CLD Name Clearance Frequency 121.95 MHZ
Type GND Name DELHI GND Frequency 121.9 MHZ
Type TWR Name DELHI TWR Frequency 118.1 MHZ
Type TWR Name DELHI TWR Frequency 118.25 MHZ
Type TWR Name DELHI TWR Frequency 118.75 MHZ
Airport Navaids
Type NDB Name Delhi Frequency 202 KHZ
Type NDB Name Delhi Frequency 274 KHZ
Type VOR-DME Name Delhi Frequency 116100 KHZ
Type NDB Name Delhi Frequency 320 KHZ
Type NDB Name Delhi Frequency 303 KHZ
Airport Weather Information & NOTAM
ADDS - METARS form results

(0210 UTC 27 June 2019)
Data provider http://aviationweather.gov/metar/data/
 
METAR text: VIDP 270200Z 28005KT 2500 HZ FEW040 SCT100 32/21 Q1000 NOSIG
Conditions at: VIDP (INDIRA GANDHI/DE, IN) observed 0200 UTC 27 June 2019
Temperature: 32.0°C (90°F)
Dewpoint: 21.0°C (70°F) [RH = 52%]
Pressure (altimeter): 29.53 inches Hg (1000.0 mb)
Winds: from the W (280 degrees) at 6 MPH (5 knots; 2.6 m/s)
Visibility: 1.55 miles (2.49 km)
Ceiling: at least 12,000 feet AGL
Clouds: few clouds at 4000 feet AGL
scattered clouds at 10000 feet AGL
Weather: HZ  (haze)

METAR text: VIDP 270130Z 26005KT 2500 HZ FEW040 SCT100 32/21 Q1000 NOSIG
Conditions at: VIDP (INDIRA GANDHI/DE, IN) observed 0130 UTC 27 June 2019
Temperature: 32.0°C (90°F)
Dewpoint: 21.0°C (70°F) [RH = 52%]
Pressure (altimeter): 29.53 inches Hg (1000.0 mb)
Winds: from the W (260 degrees) at 6 MPH (5 knots; 2.6 m/s)
Visibility: 1.55 miles (2.49 km)
Ceiling: at least 12,000 feet AGL
Clouds: few clouds at 4000 feet AGL
scattered clouds at 10000 feet AGL
Weather: HZ  (haze)